createdAt,value
2023-02-06T00:01:18.102Z,31.93
2023-02-06T00:03:45.070Z,32.20
2023-02-06T00:06:11.899Z,32.23
2023-02-06T00:08:38.770Z,32.10
2023-02-06T00:11:07.588Z,34.23
2023-02-06T00:13:35.666Z,33.40
2023-02-06T00:16:03.478Z,33.97
2023-02-06T00:18:32.120Z,31.90
2023-02-06T00:20:58.989Z,33.80
2023-02-06T00:23:25.940Z,31.47
2023-02-06T00:25:52.792Z,33.00
2023-02-06T00:28:19.730Z,31.87
2023-02-06T00:30:47.819Z,33.33
2023-02-06T00:33:14.729Z,33.53
2023-02-06T00:35:41.540Z,33.67
2023-02-06T00:38:12.595Z,33.57
2023-02-06T00:40:39.448Z,34.13
2023-02-06T00:43:06.350Z,32.93
2023-02-06T00:45:33.496Z,32.57
2023-02-06T00:48:01.116Z,32.23
2023-02-06T00:50:28.058Z,32.80
2023-02-06T00:52:55.055Z,33.37
2023-02-06T00:55:21.948Z,32.40
2023-02-06T00:58:01.266Z,33.83
2023-02-06T01:00:28.080Z,33.23
2023-02-06T01:02:54.951Z,32.03
2023-02-06T01:05:21.855Z,33.77
2023-02-06T01:07:48.770Z,32.83
2023-02-06T01:10:16.162Z,36.73
2023-02-06T01:12:43.137Z,36.27
2023-02-06T01:15:11.941Z,36.97
2023-02-06T01:17:39.945Z,36.87
2023-02-06T01:20:09.766Z,35.43
2023-02-06T01:22:37.275Z,36.23
2023-02-06T01:25:04.607Z,35.30
2023-02-06T01:27:31.733Z,34.97
2023-02-06T01:29:58.557Z,34.37
2023-02-06T01:32:25.395Z,34.13
2023-02-06T01:34:52.173Z,34.17
2023-02-06T01:37:18.954Z,34.43
2023-02-06T01:39:45.745Z,33.57
2023-02-06T01:42:13.321Z,34.37
2023-02-06T01:44:40.398Z,34.33
2023-02-06T01:47:11.050Z,33.43
2023-02-06T01:49:50.067Z,33.80
2023-02-06T01:52:31.527Z,33.70
2023-02-06T01:55:03.942Z,31.30
2023-02-06T01:57:31.885Z,34.10
2023-02-06T02:00:02.837Z,33.93
2023-02-06T02:02:32.409Z,34.10
2023-02-06T02:05:01.664Z,33.60
2023-02-06T02:07:33.298Z,34.07
2023-02-06T02:10:00.184Z,33.43
2023-02-06T02:12:27.067Z,34.43
2023-02-06T02:14:55.074Z,33.87
2023-02-06T02:17:21.944Z,33.90
2023-02-06T02:19:57.620Z,33.67
2023-02-06T02:22:36.615Z,33.93
2023-02-06T02:25:33.854Z,32.87
2023-02-06T02:28:25.118Z,31.87
2023-02-06T02:31:19.084Z,32.40
2023-02-06T02:34:20.349Z,33.17
2023-02-06T02:37:03.267Z,30.67
2023-02-06T02:39:48.151Z,31.47
2023-02-06T02:42:42.374Z,32.30
2023-02-06T02:45:25.035Z,31.37
2023-02-06T02:48:16.889Z,29.67
2023-02-06T02:50:44.444Z,30.30
2023-02-06T02:53:13.287Z,29.77
2023-02-06T02:55:40.108Z,29.00
2023-02-06T02:58:10.724Z,28.63
2023-02-06T03:00:43.387Z,30.57
2023-02-06T03:03:12.987Z,29.97
2023-02-06T03:05:51.347Z,30.27
2023-02-06T03:08:28.278Z,30.27
2023-02-06T03:11:10.118Z,30.87
2023-02-06T03:14:22.376Z,28.53
2023-02-06T03:16:58.255Z,28.80
2023-02-06T03:19:31.869Z,28.70
2023-02-06T03:22:00.446Z,29.63
2023-02-06T03:24:32.844Z,30.10
2023-02-06T03:27:02.330Z,30.33
2023-02-06T03:29:32.961Z,30.93
2023-02-06T03:32:30.672Z,30.17
2023-02-06T03:35:09.393Z,30.27
2023-02-06T03:37:37.752Z,29.47
2023-02-06T03:40:06.251Z,29.70
2023-02-06T03:42:35.029Z,29.73
2023-02-06T03:45:06.968Z,31.23
2023-02-06T03:47:36.688Z,31.03
2023-02-06T03:50:06.577Z,30.50
2023-02-06T03:52:39.479Z,29.40
2023-02-06T03:55:13.821Z,31.20
2023-02-06T03:57:44.044Z,29.80
2023-02-06T04:00:11.897Z,30.07
2023-02-06T04:02:39.560Z,30.90
2023-02-06T04:05:18.531Z,31.93
2023-02-06T04:07:45.465Z,30.33
2023-02-06T04:10:12.383Z,32.13
2023-02-06T04:12:39.593Z,31.37
2023-02-06T04:15:06.756Z,31.60
2023-02-06T04:17:49.791Z,31.97
2023-02-06T04:20:20.922Z,31.17
2023-02-06T04:22:48.000Z,31.27
2023-02-06T04:25:15.168Z,32.03
2023-02-06T04:27:41.994Z,30.80
2023-02-06T04:30:09.548Z,30.93
2023-02-06T04:32:39.237Z,31.83
2023-02-06T04:35:06.242Z,32.70
2023-02-06T04:37:33.193Z,33.43
2023-02-06T04:40:00.021Z,34.57
2023-02-06T04:42:27.067Z,36.13
2023-02-06T04:44:55.267Z,38.43
2023-02-06T04:47:22.138Z,37.57
2023-02-06T04:49:48.926Z,38.17
2023-02-06T04:55:01.397Z,37.27
2023-02-06T04:57:28.221Z,38.97
2023-02-06T04:59:55.028Z,38.20
2023-02-06T05:02:21.863Z,36.83
2023-02-06T05:04:48.741Z,34.07
2023-02-06T05:07:15.524Z,34.87
2023-02-06T05:09:42.292Z,34.60
2023-02-06T05:12:09.300Z,32.93
2023-02-06T05:14:36.110Z,32.83
2023-02-06T05:17:02.931Z,30.70
2023-02-06T05:19:29.750Z,29.30
2023-02-06T05:21:56.556Z,29.10
2023-02-06T05:24:23.362Z,27.57
2023-02-06T05:26:50.207Z,30.17
2023-02-06T05:29:17.052Z,29.43
2023-02-06T05:31:44.580Z,29.10
2023-02-06T05:34:11.394Z,29.77
2023-02-06T05:36:38.747Z,28.87
2023-02-06T05:39:05.625Z,30.83
2023-02-06T05:41:32.450Z,30.40
2023-02-06T05:43:59.426Z,31.63
2023-02-06T05:46:26.360Z,30.60
2023-02-06T05:48:53.183Z,28.57
2023-02-06T05:51:20.024Z,27.37
2023-02-06T05:53:46.856Z,26.53
2023-02-06T05:56:13.695Z,25.20
2023-02-06T05:58:40.547Z,26.93
2023-02-06T06:01:07.366Z,26.03
2023-02-06T06:03:34.244Z,26.00
2023-02-06T06:06:01.069Z,26.57
2023-02-06T06:08:27.834Z,26.07
2023-02-06T06:10:54.682Z,25.23
2023-02-06T06:13:21.627Z,27.30
2023-02-06T06:15:52.865Z,25.67
2023-02-06T06:18:20.921Z,26.00
2023-02-06T06:20:48.666Z,27.17
2023-02-06T06:23:15.541Z,25.20
2023-02-06T06:25:42.390Z,25.33
2023-02-06T06:28:09.251Z,25.80
2023-02-06T06:30:37.534Z,25.50
2023-02-06T06:33:04.860Z,25.23
2023-02-06T06:35:33.810Z,24.60
2023-02-06T06:38:00.715Z,26.40
2023-02-06T06:40:27.527Z,27.03
2023-02-06T06:42:54.348Z,26.30
2023-02-06T06:45:23.913Z,27.53
2023-02-06T06:47:50.761Z,28.13
2023-02-06T06:50:17.629Z,29.93
2023-02-06T06:52:44.447Z,28.27
2023-02-06T06:55:11.642Z,26.83
2023-02-06T06:57:38.472Z,27.67
2023-02-06T07:00:06.034Z,27.00
2023-02-06T07:02:32.910Z,27.30
2023-02-06T07:05:00.408Z,26.50
2023-02-06T07:07:27.383Z,26.13
2023-02-06T07:09:54.217Z,26.97
2023-02-06T07:12:21.196Z,26.80
2023-02-06T07:14:47.977Z,26.33
2023-02-06T07:17:14.856Z,27.37
2023-02-06T07:19:41.766Z,26.27
2023-02-06T07:22:09.001Z,26.93
2023-02-06T07:24:35.836Z,26.60
2023-02-06T07:27:08.292Z,26.47
2023-02-06T07:29:35.220Z,27.37
2023-02-06T07:32:02.127Z,27.13
2023-02-06T07:34:29.117Z,27.60
2023-02-06T07:37:00.140Z,27.23
2023-02-06T07:39:27.535Z,26.70
2023-02-06T07:41:54.381Z,27.60
2023-02-06T07:44:21.268Z,27.70
2023-02-06T07:46:48.085Z,27.57
2023-02-06T07:49:16.029Z,28.00
2023-02-06T07:51:44.339Z,29.43
2023-02-06T07:54:12.580Z,29.07
2023-02-06T07:56:44.985Z,29.37
2023-02-06T07:59:11.960Z,29.07
2023-02-06T08:01:38.782Z,30.57
2023-02-06T08:04:05.695Z,30.10
2023-02-06T08:06:32.679Z,29.47
2023-02-06T08:09:06.202Z,30.63
2023-02-06T08:11:33.374Z,28.90
2023-02-06T08:14:01.624Z,28.13
2023-02-06T08:16:28.797Z,26.77
2023-02-06T08:18:55.592Z,26.47
2023-02-06T08:21:24.559Z,25.43
2023-02-06T08:23:58.810Z,25.33
2023-02-06T08:26:27.517Z,27.00
2023-02-06T08:28:56.622Z,26.43
2023-02-06T08:31:29.013Z,25.23
2023-02-06T08:33:56.685Z,24.30
2023-02-06T08:36:24.524Z,23.20
2023-02-06T08:38:52.506Z,22.87
2023-02-06T08:41:20.696Z,22.90
2023-02-06T08:43:48.797Z,23.97
2023-02-06T08:46:17.365Z,24.70
2023-02-06T08:48:45.627Z,23.77
2023-02-06T08:51:13.164Z,23.40
2023-02-06T08:53:40.025Z,24.77
2023-02-06T08:56:12.242Z,25.30
2023-02-06T08:58:39.477Z,25.43
2023-02-06T09:01:13.700Z,25.27
2023-02-06T09:03:41.835Z,25.20
2023-02-06T09:06:10.606Z,23.30
2023-02-06T09:08:39.835Z,24.40
2023-02-06T09:11:15.946Z,24.57
2023-02-06T09:13:44.119Z,24.20
2023-02-06T09:16:12.130Z,24.40
2023-02-06T09:18:39.484Z,23.50
2023-02-06T09:21:12.163Z,24.77
2023-02-06T09:23:45.820Z,23.30
2023-02-06T09:26:15.214Z,23.20
2023-02-06T09:28:42.010Z,24.10
2023-02-06T09:31:09.351Z,23.77
2023-02-06T09:33:38.025Z,23.90
2023-02-06T09:36:07.852Z,25.13
2023-02-06T09:38:35.639Z,24.57
2023-02-06T09:41:06.265Z,23.83
2023-02-06T09:43:34.717Z,24.20
2023-02-06T09:46:04.547Z,22.37
2023-02-06T09:48:36.232Z,22.73
2023-02-06T09:51:25.864Z,23.27
2023-02-06T09:54:18.519Z,24.20
2023-02-06T09:57:00.323Z,24.77
2023-02-06T09:59:47.011Z,25.03
2023-02-06T10:02:22.590Z,23.87
2023-02-06T10:05:22.830Z,24.60
2023-02-06T10:08:01.584Z,24.33
2023-02-06T10:10:55.972Z,24.60
2023-02-06T10:13:50.606Z,23.40
2023-02-06T10:16:39.754Z,24.27
2023-02-06T10:19:20.997Z,24.50
2023-02-06T10:22:13.843Z,24.17
2023-02-06T10:25:15.949Z,24.60
2023-02-06T10:27:45.738Z,25.00
2023-02-06T10:30:22.440Z,25.63
2023-02-06T10:32:59.326Z,25.53
2023-02-06T10:35:39.778Z,25.87
2023-02-06T10:38:12.792Z,24.47
2023-02-06T10:41:05.970Z,25.63
2023-02-06T10:43:48.020Z,25.83
2023-02-06T10:46:36.867Z,25.50
2023-02-06T10:49:11.827Z,25.77
2023-02-06T10:51:45.337Z,22.93
2023-02-06T10:54:35.518Z,25.37
2023-02-06T10:57:03.208Z,24.73
2023-02-06T10:59:38.947Z,24.77
2023-02-06T11:02:34.087Z,25.07
2023-02-06T11:05:01.800Z,23.63
2023-02-06T11:07:32.670Z,23.53
2023-02-06T11:10:00.067Z,23.57
2023-02-06T11:12:39.969Z,24.77
2023-02-06T11:15:19.423Z,24.23
2023-02-06T11:17:46.453Z,24.70
2023-02-06T11:20:29.484Z,24.07
2023-02-06T11:22:56.754Z,24.03
2023-02-06T11:25:31.925Z,23.90
2023-02-06T11:28:06.179Z,23.23
2023-02-06T11:30:36.945Z,24.43
2023-02-06T11:33:36.547Z,23.47
2023-02-06T11:36:05.301Z,23.83
2023-02-06T11:38:32.866Z,23.10
2023-02-06T11:41:18.495Z,24.37
2023-02-06T11:43:56.182Z,23.47
2023-02-06T11:46:43.232Z,22.70
2023-02-06T11:49:19.152Z,21.80
2023-02-06T11:51:49.629Z,21.43
2023-02-06T11:54:28.366Z,20.40
2023-02-06T11:57:07.832Z,19.87
2023-02-06T11:59:37.080Z,18.93
2023-02-06T12:02:28.094Z,16.97
2023-02-06T12:05:16.461Z,16.30
2023-02-06T12:07:52.372Z,16.80
2023-02-06T12:10:21.557Z,16.63
2023-02-06T12:13:00.257Z,15.60
2023-02-06T12:15:46.908Z,15.50
2023-02-06T12:18:23.997Z,15.90
2023-02-06T12:21:01.774Z,15.33
2023-02-06T12:23:33.917Z,16.33
2023-02-06T12:26:04.624Z,15.63
2023-02-06T12:28:45.991Z,16.27
2023-02-06T12:31:36.651Z,16.73
2023-02-06T12:34:56.319Z,15.93
2023-02-06T12:37:56.288Z,15.73
2023-02-06T12:40:58.943Z,16.57
2023-02-06T12:43:27.470Z,16.80
2023-02-06T12:46:01.600Z,17.60
2023-02-06T12:48:37.549Z,17.73
2023-02-06T12:51:17.149Z,17.10
2023-02-06T12:53:56.275Z,19.07
2023-02-06T12:56:47.738Z,18.30
2023-02-06T12:59:57.224Z,19.17
2023-02-06T13:03:01.912Z,18.73
2023-02-06T13:05:36.069Z,20.67
2023-02-06T13:08:10.634Z,20.37
2023-02-06T13:10:38.881Z,19.93
2023-02-06T13:13:06.108Z,20.63
2023-02-06T13:15:40.162Z,19.43
2023-02-06T13:18:41.261Z,20.33
2023-02-06T13:21:22.749Z,21.10
2023-02-06T13:23:52.192Z,22.37
2023-02-06T13:26:19.153Z,21.93
2023-02-06T13:28:56.102Z,22.67
2023-02-06T13:31:28.405Z,22.60
2023-02-06T13:34:01.672Z,22.97
2023-02-06T13:36:50.574Z,23.13
2023-02-06T13:39:32.540Z,22.87
2023-02-06T13:42:22.331Z,23.40
2023-02-06T13:44:50.651Z,23.50
2023-02-06T13:47:32.422Z,22.33
2023-02-06T13:50:23.497Z,23.27
2023-02-06T13:53:18.832Z,22.83
2023-02-06T13:56:07.665Z,24.10
2023-02-06T13:58:39.923Z,25.77
2023-02-06T14:01:14.603Z,25.67
2023-02-06T14:03:50.470Z,28.00
2023-02-06T14:06:36.539Z,27.00
2023-02-06T14:09:58.906Z,27.13
2023-02-06T14:12:49.180Z,26.90
2023-02-06T14:15:49.418Z,25.50
2023-02-06T14:18:25.201Z,25.97
2023-02-06T14:21:16.384Z,29.53
2023-02-06T14:24:06.019Z,28.23
2023-02-06T14:27:27.284Z,28.27
2023-02-06T14:30:26.693Z,28.67
2023-02-06T14:33:43.740Z,28.67
2023-02-06T14:36:42.310Z,31.90
2023-02-06T14:39:46.262Z,33.03
2023-02-06T14:42:24.443Z,35.07
2023-02-06T14:44:59.313Z,36.30
2023-02-06T14:47:31.884Z,36.20
2023-02-06T14:50:00.889Z,36.87
2023-02-06T14:52:31.374Z,37.03
2023-02-06T14:54:58.177Z,38.40
2023-02-06T14:57:34.074Z,39.40
2023-02-06T15:00:16.756Z,40.00
2023-02-06T15:02:43.638Z,40.57
2023-02-06T15:05:25.086Z,40.00
2023-02-06T15:08:00.420Z,41.03
2023-02-06T15:10:30.703Z,39.80
2023-02-06T15:12:58.009Z,38.07
2023-02-06T15:15:30.747Z,39.80
2023-02-06T15:18:16.386Z,39.27
2023-02-06T15:20:58.303Z,39.17
2023-02-06T15:23:53.135Z,41.27
2023-02-06T15:26:42.671Z,41.43
2023-02-06T15:29:26.852Z,42.50
2023-02-06T15:32:00.847Z,43.17
2023-02-06T15:34:28.016Z,43.80
2023-02-06T15:37:01.332Z,44.93
2023-02-06T15:39:39.097Z,44.27
2023-02-06T15:42:10.820Z,46.00
2023-02-06T15:44:38.739Z,45.63
2023-02-06T15:47:12.987Z,48.03
2023-02-06T15:49:52.737Z,46.47
2023-02-06T15:52:48.533Z,47.53
2023-02-06T15:55:28.044Z,46.93
2023-02-06T15:57:57.078Z,46.87
2023-02-06T16:00:31.793Z,48.00
2023-02-06T16:03:04.608Z,46.23
2023-02-06T16:05:37.352Z,47.83
2023-02-06T16:08:10.849Z,48.83
2023-02-06T16:10:39.582Z,48.00
2023-02-06T16:13:14.779Z,48.40
2023-02-06T16:16:09.908Z,47.80
2023-02-06T16:18:39.170Z,46.43
2023-02-06T16:21:18.215Z,46.63
2023-02-06T16:24:06.927Z,45.80
2023-02-06T16:26:42.759Z,45.87
2023-02-06T16:29:09.558Z,44.40
2023-02-06T16:31:39.976Z,43.53
2023-02-06T16:34:22.961Z,41.80
2023-02-06T16:36:49.850Z,41.63
2023-02-06T16:39:22.008Z,41.60
2023-02-06T16:41:52.091Z,40.33
2023-02-06T16:44:20.284Z,40.53
2023-02-06T16:46:47.220Z,40.43
2023-02-06T16:49:17.052Z,41.20
2023-02-06T16:51:45.920Z,40.73
2023-02-06T16:54:31.120Z,39.80
2023-02-06T16:57:21.321Z,38.83
2023-02-06T16:59:51.513Z,37.13
2023-02-06T17:02:18.450Z,36.87
2023-02-06T17:04:45.465Z,36.13
2023-02-06T17:07:24.441Z,34.47
2023-02-06T17:09:56.830Z,35.83
2023-02-06T17:12:23.964Z,35.63
2023-02-06T17:14:51.033Z,36.80
2023-02-06T17:17:20.249Z,36.10
2023-02-06T17:19:47.688Z,37.17
2023-02-06T17:22:14.774Z,36.93
2023-02-06T17:24:42.518Z,37.10
2023-02-06T17:27:17.294Z,37.30
2023-02-06T17:29:47.274Z,37.97
2023-02-06T17:32:16.262Z,37.13
2023-02-06T17:34:43.284Z,36.43
2023-02-06T17:37:20.625Z,36.23
2023-02-06T17:39:52.060Z,36.53
2023-02-06T17:42:21.863Z,36.10
2023-02-06T17:44:48.825Z,37.30
2023-02-06T17:47:15.654Z,37.57
2023-02-06T17:49:42.585Z,36.73
2023-02-06T17:52:09.594Z,38.40
2023-02-06T17:54:36.416Z,35.27
2023-02-06T17:57:03.437Z,37.33
2023-02-06T17:59:30.316Z,38.43
2023-02-06T18:01:57.373Z,37.70
2023-02-06T18:04:24.763Z,41.43
2023-02-06T18:06:51.696Z,39.07
2023-02-06T18:09:18.763Z,39.70
2023-02-06T18:11:45.849Z,40.77
2023-02-06T18:14:12.884Z,40.10
2023-02-06T18:16:42.910Z,41.60
2023-02-06T18:19:10.527Z,39.93
2023-02-06T18:21:37.558Z,41.93
2023-02-06T18:24:05.667Z,41.63
2023-02-06T18:26:32.646Z,42.40
2023-02-06T18:28:59.564Z,43.13
2023-02-06T18:31:33.335Z,42.30
2023-02-06T18:34:03.191Z,41.23
2023-02-06T18:36:30.278Z,42.30
2023-02-06T18:38:57.623Z,42.33
2023-02-06T18:41:43.124Z,41.93
2023-02-06T18:44:11.298Z,42.33
2023-02-06T18:46:39.208Z,42.03
2023-02-06T18:49:06.379Z,42.33
2023-02-06T18:51:33.616Z,42.53
2023-02-06T18:54:01.245Z,43.90
2023-02-06T18:56:28.155Z,43.27
2023-02-06T18:58:56.204Z,42.77
2023-02-06T19:01:25.019Z,43.13
2023-02-06T19:03:52.988Z,43.00
2023-02-06T19:06:41.360Z,43.07
2023-02-06T19:09:08.720Z,44.27
2023-02-06T19:11:38.716Z,41.43
2023-02-06T19:14:07.946Z,45.30
2023-02-06T19:16:38.406Z,45.70
2023-02-06T19:19:18.291Z,44.47
2023-02-06T19:21:46.878Z,44.23
2023-02-06T19:24:15.780Z,45.33
2023-02-06T19:26:55.582Z,47.63
2023-02-06T19:29:34.615Z,43.73
2023-02-06T19:32:05.114Z,45.70
2023-02-06T19:34:39.096Z,45.67
2023-02-06T19:37:08.965Z,46.20
2023-02-06T19:39:38.074Z,47.57
2023-02-06T19:42:06.996Z,46.27
2023-02-06T19:44:34.178Z,46.73
2023-02-06T19:47:01.540Z,47.10
2023-02-06T19:49:28.805Z,45.03
2023-02-06T19:51:55.700Z,45.30
2023-02-06T19:54:22.557Z,47.50
2023-02-06T19:56:49.573Z,46.30
2023-02-06T19:59:21.762Z,43.37
2023-02-06T20:01:55.024Z,45.13
2023-02-06T20:04:25.049Z,43.77
2023-02-06T20:06:52.672Z,45.40
2023-02-06T20:09:20.579Z,44.47
2023-02-06T20:11:49.150Z,44.93
2023-02-06T20:14:17.297Z,43.57
2023-02-06T20:16:45.386Z,44.90
2023-02-06T20:19:15.708Z,44.03
2023-02-06T20:21:46.026Z,43.60
2023-02-06T20:24:15.755Z,43.63
2023-02-06T20:26:43.283Z,42.63
2023-02-06T20:29:20.032Z,41.90
2023-02-06T20:31:47.095Z,42.63
2023-02-06T20:34:14.129Z,42.90
2023-02-06T20:36:41.976Z,44.23
2023-02-06T20:39:12.193Z,43.33
2023-02-06T20:41:40.055Z,43.90
2023-02-06T20:44:07.884Z,43.50
2023-02-06T20:46:36.715Z,43.80
2023-02-06T20:49:06.068Z,44.97
2023-02-06T20:51:33.112Z,42.90
2023-02-06T20:53:59.975Z,43.50
2023-02-06T20:56:27.279Z,45.70
2023-02-06T20:58:54.212Z,46.13
2023-02-06T21:01:24.471Z,45.97
2023-02-06T21:03:54.512Z,45.13
2023-02-06T21:06:21.989Z,45.13
2023-02-06T21:08:57.317Z,45.17
2023-02-06T21:11:29.330Z,42.97
2023-02-06T21:13:58.101Z,42.90
2023-02-06T21:16:26.496Z,43.63
2023-02-06T21:18:54.070Z,43.50
2023-02-06T21:21:21.376Z,42.47
2023-02-06T21:23:48.637Z,43.23
2023-02-06T21:26:17.956Z,44.30
2023-02-06T21:28:48.824Z,43.57
2023-02-06T21:31:25.156Z,43.47
2023-02-06T21:33:52.661Z,41.40
2023-02-06T21:36:21.281Z,41.20
2023-02-06T21:38:48.751Z,44.57
2023-02-06T21:41:18.537Z,47.47
2023-02-06T21:43:45.951Z,47.33
2023-02-06T21:46:13.517Z,48.80
2023-02-06T21:48:41.207Z,49.77
2023-02-06T21:51:13.271Z,51.37
2023-02-06T21:53:41.621Z,52.77
2023-02-06T21:56:17.504Z,52.13
2023-02-06T21:58:44.788Z,54.07
2023-02-06T22:01:20.541Z,53.47
2023-02-06T22:03:48.030Z,55.83
2023-02-06T22:06:15.566Z,56.50
2023-02-06T22:08:45.274Z,56.93
2023-02-06T22:11:17.690Z,59.50
2023-02-06T22:13:45.735Z,59.03
2023-02-06T22:16:14.588Z,60.07
2023-02-06T22:18:41.917Z,59.03
2023-02-06T22:21:22.653Z,59.80
2023-02-06T22:23:52.398Z,59.10
2023-02-06T22:26:21.527Z,56.60
2023-02-06T22:28:49.002Z,54.90
2023-02-06T22:31:17.788Z,57.17
2023-02-06T22:33:44.983Z,56.43
2023-02-06T22:36:15.699Z,56.13
2023-02-06T22:38:45.466Z,54.23
2023-02-06T22:41:15.925Z,55.93
2023-02-06T22:43:44.341Z,55.10
2023-02-06T22:46:23.102Z,57.43
2023-02-06T22:48:50.180Z,56.63
2023-02-06T22:51:17.468Z,55.17
2023-02-06T22:53:44.785Z,58.47
2023-02-06T22:56:27.360Z,55.63
2023-02-06T22:59:03.860Z,51.77
2023-02-06T23:01:34.073Z,51.40
2023-02-06T23:04:02.473Z,51.57
2023-02-06T23:06:31.865Z,51.83
2023-02-06T23:09:00.054Z,49.97
2023-02-06T23:11:28.316Z,49.27
2023-02-06T23:13:57.936Z,48.63
2023-02-06T23:16:25.001Z,49.50
2023-02-06T23:18:52.276Z,47.70
2023-02-06T23:21:21.160Z,47.23
2023-02-06T23:23:48.244Z,45.63
2023-02-06T23:26:16.947Z,44.10
2023-02-06T23:28:44.108Z,42.90
2023-02-06T23:31:12.303Z,43.70
2023-02-06T23:33:39.374Z,43.37
2023-02-06T23:36:11.784Z,42.83
2023-02-06T23:38:39.694Z,42.73
2023-02-06T23:41:12.005Z,42.47
2023-02-06T23:43:39.757Z,43.17
2023-02-06T23:46:07.562Z,41.60
2023-02-06T23:48:35.302Z,41.77
2023-02-06T23:51:02.869Z,41.30
2023-02-06T23:53:29.868Z,41.80
2023-02-06T23:55:57.849Z,39.40
2023-02-06T23:58:24.874Z,38.80
